sensor_id;sensor_type;location;lat;lon;timestamp;P1;durP1;ratioP1;P2;durP2;ratioP2
25467;SDS011;13384;24.794;110.498;2022-07-06T00:00:47;10.75;;;6.90;;
25467;SDS011;13384;24.794;110.498;2022-07-06T00:06:51;7.30;;;6.13;;
25467;SDS011;13384;24.794;110.498;2022-07-06T00:19:41;6.75;;;6.03;;
25467;SDS011;13384;24.794;110.498;2022-07-06T00:25:27;8.18;;;6.63;;
25467;SDS011;13384;24.794;110.498;2022-07-06T00:31:35;9.43;;;6.72;;
25467;SDS011;13384;24.794;110.498;2022-07-06T00:34:07;12.05;;;7.18;;
25467;SDS011;13384;24.794;110.498;2022-07-06T00:39:50;9.85;;;6.57;;
25467;SDS011;13384;24.794;110.498;2022-07-06T00:42:21;9.98;;;6.88;;
25467;SDS011;13384;24.794;110.498;2022-07-06T00:53:41;7.57;;;6.00;;
25467;SDS011;13384;24.794;110.498;2022-07-06T00:59:19;8.43;;;6.43;;
25467;SDS011;13384;24.794;110.498;2022-07-06T01:14:34;6.97;;;5.82;;
25467;SDS011;13384;24.794;110.498;2022-07-06T01:24:14;6.13;;;5.15;;
25467;SDS011;13384;24.794;110.498;2022-07-06T01:30:08;7.13;;;5.38;;
25467;SDS011;13384;24.794;110.498;2022-07-06T01:33:19;8.20;;;5.82;;
25467;SDS011;13384;24.794;110.498;2022-07-06T01:46:18;9.68;;;5.68;;
25467;SDS011;13384;24.794;110.498;2022-07-06T01:48:50;8.05;;;6.22;;
25467;SDS011;13384;24.794;110.498;2022-07-06T01:51:58;48.72;;;11.05;;
25467;SDS011;13384;24.794;110.498;2022-07-06T01:54:55;35.20;;;7.45;;
25467;SDS011;13384;24.794;110.498;2022-07-06T02:04:03;11.00;;;5.75;;
25467;SDS011;13384;24.794;110.498;2022-07-06T02:06:55;8.50;;;5.07;;
25467;SDS011;13384;24.794;110.498;2022-07-06T02:12:40;7.75;;;5.95;;
25467;SDS011;13384;24.794;110.498;2022-07-06T02:22:01;7.97;;;6.05;;
25467;SDS011;13384;24.794;110.498;2022-07-06T02:43:24;7.43;;;6.50;;
25467;SDS011;13384;24.794;110.498;2022-07-06T02:52:02;7.95;;;6.88;;
25467;SDS011;13384;24.794;110.498;2022-07-06T02:54:32;6.93;;;5.28;;
25467;SDS011;13384;24.794;110.498;2022-07-06T03:03:51;8.20;;;6.53;;
25467;SDS011;13384;24.794;110.498;2022-07-06T03:06:40;7.45;;;5.18;;
25467;SDS011;13384;24.794;110.498;2022-07-06T03:09:32;9.05;;;6.47;;
25467;SDS011;13384;24.794;110.498;2022-07-06T03:14:53;5.95;;;4.72;;
25467;SDS011;13384;24.794;110.498;2022-07-06T03:27:27;7.00;;;5.38;;
25467;SDS011;13384;24.794;110.498;2022-07-06T03:36:09;7.80;;;6.03;;
25467;SDS011;13384;24.794;110.498;2022-07-06T03:45:14;9.13;;;6.93;;
25467;SDS011;13384;24.794;110.498;2022-07-06T03:54:56;11.23;;;10.10;;
25467;SDS011;13384;24.794;110.498;2022-07-06T04:14:32;16.48;;;14.48;;
25467;SDS011;13384;24.794;110.498;2022-07-06T04:17:40;12.55;;;8.82;;
25467;SDS011;13384;24.794;110.498;2022-07-06T04:20:30;12.35;;;11.05;;
25467;SDS011;13384;24.794;110.498;2022-07-06T04:26:16;7.65;;;6.75;;
25467;SDS011;13384;24.794;110.498;2022-07-06T04:35:54;10.68;;;8.98;;
25467;SDS011;13384;24.794;110.498;2022-07-06T04:42:06;11.02;;;7.13;;
25467;SDS011;13384;24.794;110.498;2022-07-06T04:45:11;10.00;;;8.32;;
25467;SDS011;13384;24.794;110.498;2022-07-06T04:50:30;8.43;;;6.45;;
25467;SDS011;13384;24.794;110.498;2022-07-06T04:53:41;8.02;;;6.57;;
25467;SDS011;13384;24.794;110.498;2022-07-06T05:13:43;4.80;;;4.30;;
25467;SDS011;13384;24.794;110.498;2022-07-06T05:20:36;4.97;;;3.70;;
25467;SDS011;13384;24.794;110.498;2022-07-06T05:32:40;3.72;;;3.42;;
25467;SDS011;13384;24.794;110.498;2022-07-06T05:35:32;3.58;;;3.08;;
25467;SDS011;13384;24.794;110.498;2022-07-06T05:41:39;3.88;;;3.40;;
25467;SDS011;13384;24.794;110.498;2022-07-06T05:44:32;4.00;;;3.60;;
25467;SDS011;13384;24.794;110.498;2022-07-06T05:50:42;5.55;;;4.05;;
25467;SDS011;13384;24.794;110.498;2022-07-06T05:53:13;4.63;;;3.83;;
25467;SDS011;13384;24.794;110.498;2022-07-06T05:56:23;6.22;;;3.33;;
25467;SDS011;13384;24.794;110.498;2022-07-06T06:02:42;3.90;;;2.90;;
25467;SDS011;13384;24.794;110.498;2022-07-06T06:18:45;4.15;;;3.33;;
25467;SDS011;13384;24.794;110.498;2022-07-06T06:25:10;5.35;;;3.15;;
25467;SDS011;13384;24.794;110.498;2022-07-06T06:28:02;4.07;;;3.00;;
25467;SDS011;13384;24.794;110.498;2022-07-06T06:33:54;6.35;;;3.47;;
25467;SDS011;13384;24.794;110.498;2022-07-06T06:39:50;3.00;;;2.67;;
25467;SDS011;13384;24.794;110.498;2022-07-06T06:42:19;3.17;;;2.88;;
25467;SDS011;13384;24.794;110.498;2022-07-06T06:44:51;3.40;;;2.75;;
25467;SDS011;13384;24.794;110.498;2022-07-06T06:47:20;4.22;;;3.70;;
25467;SDS011;13384;24.794;110.498;2022-07-06T06:59:48;2.63;;;2.42;;
25467;SDS011;13384;24.794;110.498;2022-07-06T07:18:36;3.75;;;2.50;;
25467;SDS011;13384;24.794;110.498;2022-07-06T07:29:59;3.78;;;2.22;;
25467;SDS011;13384;24.794;110.498;2022-07-06T07:32:28;2.30;;;2.10;;
25467;SDS011;13384;24.794;110.498;2022-07-06T07:38:19;3.25;;;2.88;;
25467;SDS011;13384;24.794;110.498;2022-07-06T07:47:16;2.88;;;2.58;;
25467;SDS011;13384;24.794;110.498;2022-07-06T07:53:02;2.55;;;2.30;;
25467;SDS011;13384;24.794;110.498;2022-07-06T07:55:31;2.53;;;2.33;;
25467;SDS011;13384;24.794;110.498;2022-07-06T07:58:00;2.42;;;2.22;;
25467;SDS011;13384;24.794;110.498;2022-07-06T08:01:10;2.30;;;2.10;;
25467;SDS011;13384;24.794;110.498;2022-07-06T08:06:28;3.15;;;2.33;;
25467;SDS011;13384;24.794;110.498;2022-07-06T08:09:34;2.78;;;2.45;;
25467;SDS011;13384;24.794;110.498;2022-07-06T08:18:12;5.65;;;3.00;;
25467;SDS011;13384;24.794;110.498;2022-07-06T08:24:14;2.45;;;2.22;;
25467;SDS011;13384;24.794;110.498;2022-07-06T08:33:04;2.90;;;2.60;;
25467;SDS011;13384;24.794;110.498;2022-07-06T08:35:57;2.50;;;2.30;;
25467;SDS011;13384;24.794;110.498;2022-07-06T08:38:46;619.15;;;463.63;;
25467;SDS011;13384;24.794;110.498;2022-07-06T08:47:07;553.97;;;448.75;;
25467;SDS011;13384;24.794;110.498;2022-07-06T08:53:01;393.80;;;288.73;;
25467;SDS011;13384;24.794;110.498;2022-07-06T09:11:16;6.25;;;4.80;;
25467;SDS011;13384;24.794;110.498;2022-07-06T09:13:48;12.82;;;9.52;;
25467;SDS011;13384;24.794;110.498;2022-07-06T09:16:29;22.40;;;17.70;;
25467;SDS011;13384;24.794;110.498;2022-07-06T09:25:30;15.27;;;12.85;;
25467;SDS011;13384;24.794;110.498;2022-07-06T09:28:39;12.10;;;9.32;;
25467;SDS011;13384;24.794;110.498;2022-07-06T09:34:54;17.15;;;11.40;;
25467;SDS011;13384;24.794;110.498;2022-07-06T09:37:25;7.57;;;4.93;;
25467;SDS011;13384;24.794;110.498;2022-07-06T09:40:15;9.15;;;7.05;;
25467;SDS011;13384;24.794;110.498;2022-07-06T09:45:42;5.60;;;5.10;;
25467;SDS011;13384;24.794;110.498;2022-07-06T09:48:52;4.95;;;4.22;;
25467;SDS011;13384;24.794;110.498;2022-07-06T09:58:07;10.60;;;7.70;;
25467;SDS011;13384;24.794;110.498;2022-07-06T10:04:45;12.35;;;10.52;;
25467;SDS011;13384;24.794;110.498;2022-07-06T10:11:08;15.30;;;11.93;;
25467;SDS011;13384;24.794;110.498;2022-07-06T10:14:01;7.10;;;5.88;;
25467;SDS011;13384;24.794;110.498;2022-07-06T10:17:02;12.68;;;9.40;;
25467;SDS011;13384;24.794;110.498;2022-07-06T10:29:17;13.82;;;10.13;;
25467;SDS011;13384;24.794;110.498;2022-07-06T10:32:11;7.20;;;6.28;;
25467;SDS011;13384;24.794;110.498;2022-07-06T10:34:40;6.40;;;5.50;;
25467;SDS011;13384;24.794;110.498;2022-07-06T10:37:20;10.77;;;8.48;;
25467;SDS011;13384;24.794;110.498;2022-07-06T10:39:53;15.60;;;11.23;;
25467;SDS011;13384;24.794;110.498;2022-07-06T10:43:02;8.15;;;7.18;;
25467;SDS011;13384;24.794;110.498;2022-07-06T10:48:23;10.52;;;9.05;;
25467;SDS011;13384;24.794;110.498;2022-07-06T10:50:54;11.77;;;6.30;;
25467;SDS011;13384;24.794;110.498;2022-07-06T10:53:26;8.60;;;7.25;;
25467;SDS011;13384;24.794;110.498;2022-07-06T10:56:15;7.80;;;6.70;;
25467;SDS011;13384;24.794;110.498;2022-07-06T10:59:24;6.40;;;5.53;;
25467;SDS011;13384;24.794;110.498;2022-07-06T11:02:16;6.70;;;5.68;;
25467;SDS011;13384;24.794;110.498;2022-07-06T11:04:48;8.20;;;5.75;;
25467;SDS011;13384;24.794;110.498;2022-07-06T11:07:49;10.48;;;8.55;;
25467;SDS011;13384;24.794;110.498;2022-07-06T11:10:46;9.43;;;8.15;;
25467;SDS011;13384;24.794;110.498;2022-07-06T11:13:28;8.30;;;7.28;;
25467;SDS011;13384;24.794;110.498;2022-07-06T11:16:02;7.05;;;5.72;;
25467;SDS011;13384;24.794;110.498;2022-07-06T11:18:40;8.50;;;5.70;;
25467;SDS011;13384;24.794;110.498;2022-07-06T11:24:30;6.05;;;5.30;;
25467;SDS011;13384;24.794;110.498;2022-07-06T11:27:03;9.60;;;7.38;;
25467;SDS011;13384;24.794;110.498;2022-07-06T11:29:55;8.38;;;7.00;;
25467;SDS011;13384;24.794;110.498;2022-07-06T11:32:30;6.53;;;5.38;;
25467;SDS011;13384;24.794;110.498;2022-07-06T11:35:21;6.63;;;5.32;;
25467;SDS011;13384;24.794;110.498;2022-07-06T11:37:54;9.45;;;8.02;;
25467;SDS011;13384;24.794;110.498;2022-07-06T11:40:36;7.50;;;5.35;;
25467;SDS011;13384;24.794;110.498;2022-07-06T11:43:08;5.82;;;5.00;;
25467;SDS011;13384;24.794;110.498;2022-07-06T11:45:39;8.10;;;5.95;;
25467;SDS011;13384;24.794;110.498;2022-07-06T11:48:11;8.48;;;6.25;;
25467;SDS011;13384;24.794;110.498;2022-07-06T11:51:05;11.38;;;8.60;;
25467;SDS011;13384;24.794;110.498;2022-07-06T11:53:43;8.90;;;6.53;;
25467;SDS011;13384;24.794;110.498;2022-07-06T11:56:23;5.47;;;4.72;;
25467;SDS011;13384;24.794;110.498;2022-07-06T11:59:16;6.60;;;5.78;;
25467;SDS011;13384;24.794;110.498;2022-07-06T12:01:58;9.45;;;7.70;;
25467;SDS011;13384;24.794;110.498;2022-07-06T12:04:39;6.68;;;5.80;;
25467;SDS011;13384;24.794;110.498;2022-07-06T12:07:15;7.47;;;4.80;;
25467;SDS011;13384;24.794;110.498;2022-07-06T12:10:07;7.10;;;4.97;;
25467;SDS011;13384;24.794;110.498;2022-07-06T12:13:04;8.63;;;5.07;;
25467;SDS011;13384;24.794;110.498;2022-07-06T12:15:37;6.50;;;5.25;;
25467;SDS011;13384;24.794;110.498;2022-07-06T12:19:02;5.78;;;4.65;;
25467;SDS011;13384;24.794;110.498;2022-07-06T12:21:34;5.82;;;4.55;;
25467;SDS011;13384;24.794;110.498;2022-07-06T12:24:24;8.45;;;7.05;;
25467;SDS011;13384;24.794;110.498;2022-07-06T12:27:19;8.75;;;6.68;;
25467;SDS011;13384;24.794;110.498;2022-07-06T12:29:51;6.53;;;4.93;;
25467;SDS011;13384;24.794;110.498;2022-07-06T12:32:40;7.18;;;5.57;;
25467;SDS011;13384;24.794;110.498;2022-07-06T12:35:35;6.10;;;4.13;;
25467;SDS011;13384;24.794;110.498;2022-07-06T12:38:46;5.03;;;4.43;;
25467;SDS011;13384;24.794;110.498;2022-07-06T12:41:41;4.80;;;4.30;;
25467;SDS011;13384;24.794;110.498;2022-07-06T12:44:29;5.53;;;4.97;;
25467;SDS011;13384;24.794;110.498;2022-07-06T12:49:39;5.82;;;4.95;;
25467;SDS011;13384;24.794;110.498;2022-07-06T12:52:12;5.97;;;4.40;;
25467;SDS011;13384;24.794;110.498;2022-07-06T12:54:47;9.70;;;7.30;;
25467;SDS011;13384;24.794;110.498;2022-07-06T12:57:43;6.28;;;5.05;;
25467;SDS011;13384;24.794;110.498;2022-07-06T13:00:21;10.25;;;7.85;;
25467;SDS011;13384;24.794;110.498;2022-07-06T13:02:53;5.68;;;4.35;;
25467;SDS011;13384;24.794;110.498;2022-07-06T13:05:49;11.30;;;7.25;;
25467;SDS011;13384;24.794;110.498;2022-07-06T13:08:37;5.30;;;4.80;;
25467;SDS011;13384;24.794;110.498;2022-07-06T13:11:29;8.07;;;7.30;;
25467;SDS011;13384;24.794;110.498;2022-07-06T13:14:21;4.13;;;3.75;;
25467;SDS011;13384;24.794;110.498;2022-07-06T13:17:33;8.25;;;7.03;;
25467;SDS011;13384;24.794;110.498;2022-07-06T13:20:10;6.05;;;4.80;;
25467;SDS011;13384;24.794;110.498;2022-07-06T13:22:44;5.03;;;4.55;;
25467;SDS011;13384;24.794;110.498;2022-07-06T13:25:16;4.30;;;3.88;;
25467;SDS011;13384;24.794;110.498;2022-07-06T13:27:47;8.05;;;5.30;;
25467;SDS011;13384;24.794;110.498;2022-07-06T13:30:20;6.97;;;5.93;;
25467;SDS011;13384;24.794;110.498;2022-07-06T13:32:53;7.37;;;6.43;;
25467;SDS011;13384;24.794;110.498;2022-07-06T13:35:27;6.90;;;6.13;;
25467;SDS011;13384;24.794;110.498;2022-07-06T13:37:59;8.35;;;7.60;;
25467;SDS011;13384;24.794;110.498;2022-07-06T13:40:31;4.30;;;3.58;;
25467;SDS011;13384;24.794;110.498;2022-07-06T13:43:06;3.72;;;3.00;;
25467;SDS011;13384;24.794;110.498;2022-07-06T13:46:06;20.40;;;18.30;;
25467;SDS011;13384;24.794;110.498;2022-07-06T13:51:41;22.88;;;20.08;;
25467;SDS011;13384;24.794;110.498;2022-07-06T13:54:32;14.10;;;12.60;;
25467;SDS011;13384;24.794;110.498;2022-07-06T13:57:05;8.10;;;7.38;;
25467;SDS011;13384;24.794;110.498;2022-07-06T13:59:37;9.57;;;8.65;;
25467;SDS011;13384;24.794;110.498;2022-07-06T14:02:10;9.23;;;8.32;;
25467;SDS011;13384;24.794;110.498;2022-07-06T14:05:03;22.95;;;20.52;;
25467;SDS011;13384;24.794;110.498;2022-07-06T14:07:36;4.70;;;4.22;;
25467;SDS011;13384;24.794;110.498;2022-07-06T14:10:08;9.57;;;8.50;;
25467;SDS011;13384;24.794;110.498;2022-07-06T14:13:00;6.30;;;5.70;;
25467;SDS011;13384;24.794;110.498;2022-07-06T14:15:32;15.80;;;14.18;;
25467;SDS011;13384;24.794;110.498;2022-07-06T14:18:03;31.48;;;28.25;;
25467;SDS011;13384;24.794;110.498;2022-07-06T14:20:35;7.85;;;7.10;;
25467;SDS011;13384;24.794;110.498;2022-07-06T14:23:26;6.40;;;4.68;;
25467;SDS011;13384;24.794;110.498;2022-07-06T14:25:58;4.10;;;3.70;;
25467;SDS011;13384;24.794;110.498;2022-07-06T14:28:30;4.40;;;3.95;;
25467;SDS011;13384;24.794;110.498;2022-07-06T14:31:02;10.60;;;9.50;;
25467;SDS011;13384;24.794;110.498;2022-07-06T14:33:57;16.60;;;14.90;;
25467;SDS011;13384;24.794;110.498;2022-07-06T14:36:29;6.85;;;5.95;;
25467;SDS011;13384;24.794;110.498;2022-07-06T14:39:01;13.85;;;11.50;;
25467;SDS011;13384;24.794;110.498;2022-07-06T14:41:32;8.93;;;7.68;;
25467;SDS011;13384;24.794;110.498;2022-07-06T14:44:05;9.13;;;6.63;;
25467;SDS011;13384;24.794;110.498;2022-07-06T14:46:37;7.38;;;4.97;;
25467;SDS011;13384;24.794;110.498;2022-07-06T14:49:10;4.13;;;3.72;;
25467;SDS011;13384;24.794;110.498;2022-07-06T14:51:48;5.90;;;5.07;;
25467;SDS011;13384;24.794;110.498;2022-07-06T14:54:19;8.68;;;6.25;;
25467;SDS011;13384;24.794;110.498;2022-07-06T14:56:51;8.20;;;6.00;;
25467;SDS011;13384;24.794;110.498;2022-07-06T14:59:23;6.20;;;5.60;;
25467;SDS011;13384;24.794;110.498;2022-07-06T15:01:54;6.32;;;5.68;;
25467;SDS011;13384;24.794;110.498;2022-07-06T15:09:24;6.32;;;4.00;;
25467;SDS011;13384;24.794;110.498;2022-07-06T15:11:58;6.75;;;5.10;;
25467;SDS011;13384;24.794;110.498;2022-07-06T15:14:29;4.25;;;3.85;;
25467;SDS011;13384;24.794;110.498;2022-07-06T15:17:02;6.50;;;5.00;;
25467;SDS011;13384;24.794;110.498;2022-07-06T15:19:34;4.30;;;3.40;;
25467;SDS011;13384;24.794;110.498;2022-07-06T15:22:05;3.88;;;3.42;;
25467;SDS011;13384;24.794;110.498;2022-07-06T15:24:37;3.85;;;2.90;;
25467;SDS011;13384;24.794;110.498;2022-07-06T15:27:28;3.10;;;2.42;;
25467;SDS011;13384;24.794;110.498;2022-07-06T15:30:00;6.13;;;5.27;;
25467;SDS011;13384;24.794;110.498;2022-07-06T15:32:52;5.13;;;3.83;;
25467;SDS011;13384;24.794;110.498;2022-07-06T15:35:23;6.20;;;4.88;;
25467;SDS011;13384;24.794;110.498;2022-07-06T15:37:55;4.32;;;2.70;;
25467;SDS011;13384;24.794;110.498;2022-07-06T15:40:46;2.53;;;2.33;;
25467;SDS011;13384;24.794;110.498;2022-07-06T15:43:30;2.60;;;2.40;;
25467;SDS011;13384;24.794;110.498;2022-07-06T15:46:03;6.20;;;5.35;;
25467;SDS011;13384;24.794;110.498;2022-07-06T15:48:35;6.35;;;2.97;;
25467;SDS011;13384;24.794;110.498;2022-07-06T15:51:28;6.57;;;5.22;;
25467;SDS011;13384;24.794;110.498;2022-07-06T15:54:00;5.22;;;4.20;;
25467;SDS011;13384;24.794;110.498;2022-07-06T15:56:33;4.13;;;2.50;;
25467;SDS011;13384;24.794;110.498;2022-07-06T15:59:05;5.85;;;4.95;;
25467;SDS011;13384;24.794;110.498;2022-07-06T16:01:56;3.38;;;2.75;;
25467;SDS011;13384;24.794;110.498;2022-07-06T16:04:29;6.10;;;5.50;;
25467;SDS011;13384;24.794;110.498;2022-07-06T16:07:01;3.63;;;2.90;;
25467;SDS011;13384;24.794;110.498;2022-07-06T16:09:52;4.45;;;3.50;;
25467;SDS011;13384;24.794;110.498;2022-07-06T16:12:44;4.25;;;3.83;;
25467;SDS011;13384;24.794;110.498;2022-07-06T16:15:19;3.70;;;3.30;;
25467;SDS011;13384;24.794;110.498;2022-07-06T16:17:51;4.75;;;3.58;;
25467;SDS011;13384;24.794;110.498;2022-07-06T16:20:23;5.20;;;2.55;;
25467;SDS011;13384;24.794;110.498;2022-07-06T16:22:54;3.83;;;2.15;;
25467;SDS011;13384;24.794;110.498;2022-07-06T16:25:27;3.95;;;3.00;;
25467;SDS011;13384;24.794;110.498;2022-07-06T16:27:58;3.67;;;3.08;;
25467;SDS011;13384;24.794;110.498;2022-07-06T16:30:31;4.65;;;3.20;;
25467;SDS011;13384;24.794;110.498;2022-07-06T16:33:03;4.63;;;3.33;;
25467;SDS011;13384;24.794;110.498;2022-07-06T16:35:52;4.80;;;2.60;;
25467;SDS011;13384;24.794;110.498;2022-07-06T16:38:28;4.30;;;2.85;;
25467;SDS011;13384;24.794;110.498;2022-07-06T16:41:00;4.57;;;3.03;;
25467;SDS011;13384;24.794;110.498;2022-07-06T16:43:31;3.00;;;2.70;;
25467;SDS011;13384;24.794;110.498;2022-07-06T16:46:03;3.47;;;2.85;;
25467;SDS011;13384;24.794;110.498;2022-07-06T16:48:35;4.50;;;2.45;;
25467;SDS011;13384;24.794;110.498;2022-07-06T16:51:07;3.88;;;3.47;;
25467;SDS011;13384;24.794;110.498;2022-07-06T16:53:38;6.40;;;3.25;;
25467;SDS011;13384;24.794;110.498;2022-07-06T16:56:10;2.65;;;2.33;;
25467;SDS011;13384;24.794;110.498;2022-07-06T16:58:41;6.63;;;3.15;;
25467;SDS011;13384;24.794;110.498;2022-07-06T17:01:12;4.75;;;2.20;;
25467;SDS011;13384;24.794;110.498;2022-07-06T17:03:45;3.53;;;3.20;;
25467;SDS011;13384;24.794;110.498;2022-07-06T17:06:17;4.15;;;3.50;;
25467;SDS011;13384;24.794;110.498;2022-07-06T17:08:50;2.55;;;2.28;;
25467;SDS011;13384;24.794;110.498;2022-07-06T17:11:45;3.15;;;2.47;;
25467;SDS011;13384;24.794;110.498;2022-07-06T17:14:16;2.80;;;2.58;;
25467;SDS011;13384;24.794;110.498;2022-07-06T17:16:48;5.18;;;2.53;;
25467;SDS011;13384;24.794;110.498;2022-07-06T17:24:19;5.10;;;2.30;;
25467;SDS011;13384;24.794;110.498;2022-07-06T17:26:50;2.22;;;2.03;;
25467;SDS011;13384;24.794;110.498;2022-07-06T17:29:22;5.57;;;3.50;;
25467;SDS011;13384;24.794;110.498;2022-07-06T17:31:55;2.00;;;1.80;;
25467;SDS011;13384;24.794;110.498;2022-07-06T17:34:26;5.00;;;3.90;;
25467;SDS011;13384;24.794;110.498;2022-07-06T17:36:58;3.95;;;2.20;;
25467;SDS011;13384;24.794;110.498;2022-07-06T17:39:29;2.95;;;2.40;;
25467;SDS011;13384;24.794;110.498;2022-07-06T17:42:01;3.97;;;3.35;;
25467;SDS011;13384;24.794;110.498;2022-07-06T17:44:34;4.63;;;2.20;;
25467;SDS011;13384;24.794;110.498;2022-07-06T17:47:05;2.22;;;2.03;;
25467;SDS011;13384;24.794;110.498;2022-07-06T17:49:56;2.00;;;1.70;;
25467;SDS011;13384;24.794;110.498;2022-07-06T17:52:27;6.15;;;3.90;;
25467;SDS011;13384;24.794;110.498;2022-07-06T17:54:59;2.95;;;2.33;;
25467;SDS011;13384;24.794;110.498;2022-07-06T17:57:30;4.22;;;3.60;;
25467;SDS011;13384;24.794;110.498;2022-07-06T18:00:02;4.18;;;2.95;;
25467;SDS011;13384;24.794;110.498;2022-07-06T18:02:37;5.75;;;4.03;;
25467;SDS011;13384;24.794;110.498;2022-07-06T18:05:09;5.68;;;4.07;;
25467;SDS011;13384;24.794;110.498;2022-07-06T18:07:42;3.90;;;3.27;;
25467;SDS011;13384;24.794;110.498;2022-07-06T18:10:13;3.85;;;3.45;;
25467;SDS011;13384;24.794;110.498;2022-07-06T18:12:44;3.65;;;3.22;;
25467;SDS011;13384;24.794;110.498;2022-07-06T18:15:15;2.97;;;2.22;;
25467;SDS011;13384;24.794;110.498;2022-07-06T18:17:47;3.28;;;2.97;;
25467;SDS011;13384;24.794;110.498;2022-07-06T18:20:30;2.25;;;2.05;;
25467;SDS011;13384;24.794;110.498;2022-07-06T18:23:02;2.72;;;1.98;;
25467;SDS011;13384;24.794;110.498;2022-07-06T18:25:37;2.88;;;1.83;;
25467;SDS011;13384;24.794;110.498;2022-07-06T18:28:08;4.38;;;2.75;;
25467;SDS011;13384;24.794;110.498;2022-07-06T18:30:46;3.08;;;2.00;;
25467;SDS011;13384;24.794;110.498;2022-07-06T18:33:18;1.88;;;1.60;;
25467;SDS011;13384;24.794;110.498;2022-07-06T18:35:49;2.55;;;1.65;;
25467;SDS011;13384;24.794;110.498;2022-07-06T18:38:22;2.30;;;1.67;;
25467;SDS011;13384;24.794;110.498;2022-07-06T18:40:53;3.08;;;1.83;;
25467;SDS011;13384;24.794;110.498;2022-07-06T18:43:26;6.57;;;2.20;;
25467;SDS011;13384;24.794;110.498;2022-07-06T18:45:58;5.55;;;2.13;;
25467;SDS011;13384;24.794;110.498;2022-07-06T18:48:31;3.95;;;2.00;;
25467;SDS011;13384;24.794;110.498;2022-07-06T18:51:02;2.35;;;1.90;;
25467;SDS011;13384;24.794;110.498;2022-07-06T18:53:34;3.17;;;2.60;;
25467;SDS011;13384;24.794;110.498;2022-07-06T18:56:05;4.28;;;2.10;;
25467;SDS011;13384;24.794;110.498;2022-07-06T18:58:37;5.07;;;1.90;;
25467;SDS011;13384;24.794;110.498;2022-07-06T19:01:08;6.65;;;2.00;;
25467;SDS011;13384;24.794;110.498;2022-07-06T19:03:41;2.63;;;1.70;;
25467;SDS011;13384;24.794;110.498;2022-07-06T19:06:14;7.33;;;1.77;;
25467;SDS011;13384;24.794;110.498;2022-07-06T19:08:48;5.78;;;2.20;;
25467;SDS011;13384;24.794;110.498;2022-07-06T19:11:19;6.30;;;2.78;;
25467;SDS011;13384;24.794;110.498;2022-07-06T19:13:50;4.63;;;3.58;;
25467;SDS011;13384;24.794;110.498;2022-07-06T19:16:24;2.63;;;2.42;;
25467;SDS011;13384;24.794;110.498;2022-07-06T19:18:56;2.60;;;2.15;;
25467;SDS011;13384;24.794;110.498;2022-07-06T19:21:27;4.03;;;2.13;;
25467;SDS011;13384;24.794;110.498;2022-07-06T19:24:11;5.93;;;1.90;;
25467;SDS011;13384;24.794;110.498;2022-07-06T19:26:43;5.68;;;2.20;;
25467;SDS011;13384;24.794;110.498;2022-07-06T19:29:14;4.30;;;2.35;;
25467;SDS011;13384;24.794;110.498;2022-07-06T19:31:45;4.30;;;3.00;;
25467;SDS011;13384;24.794;110.498;2022-07-06T19:34:17;6.50;;;2.78;;
25467;SDS011;13384;24.794;110.498;2022-07-06T19:36:49;3.50;;;1.70;;
25467;SDS011;13384;24.794;110.498;2022-07-06T19:39:20;6.72;;;2.05;;
25467;SDS011;13384;24.794;110.498;2022-07-06T19:41:51;3.97;;;2.28;;
25467;SDS011;13384;24.794;110.498;2022-07-06T19:44:23;3.42;;;2.55;;
25467;SDS011;13384;24.794;110.498;2022-07-06T19:46:54;4.40;;;3.60;;
25467;SDS011;13384;24.794;110.498;2022-07-06T19:49:26;4.60;;;3.63;;
25467;SDS011;13384;24.794;110.498;2022-07-06T19:51:57;3.70;;;3.40;;
25467;SDS011;13384;24.794;110.498;2022-07-06T19:54:28;3.28;;;2.42;;
25467;SDS011;13384;24.794;110.498;2022-07-06T19:57:00;7.43;;;2.20;;
25467;SDS011;13384;24.794;110.498;2022-07-06T19:59:33;2.28;;;1.83;;
25467;SDS011;13384;24.794;110.498;2022-07-06T20:05:10;3.00;;;2.17;;
25467;SDS011;13384;24.794;110.498;2022-07-06T20:07:41;6.13;;;2.53;;
25467;SDS011;13384;24.794;110.498;2022-07-06T20:10:13;3.45;;;3.10;;
25467;SDS011;13384;24.794;110.498;2022-07-06T20:12:44;5.68;;;2.05;;
25467;SDS011;13384;24.794;110.498;2022-07-06T20:15:16;3.17;;;1.95;;
25467;SDS011;13384;24.794;110.498;2022-07-06T20:17:49;3.33;;;3.03;;
25467;SDS011;13384;24.794;110.498;2022-07-06T20:20:21;4.57;;;2.08;;
25467;SDS011;13384;24.794;110.498;2022-07-06T20:22:52;4.45;;;2.50;;
25467;SDS011;13384;24.794;110.498;2022-07-06T20:25:24;5.20;;;2.33;;
25467;SDS011;13384;24.794;110.498;2022-07-06T20:27:55;4.05;;;2.63;;
25467;SDS011;13384;24.794;110.498;2022-07-06T20:30:27;4.53;;;2.72;;
25467;SDS011;13384;24.794;110.498;2022-07-06T20:32:58;8.45;;;2.35;;
25467;SDS011;13384;24.794;110.498;2022-07-06T20:35:45;2.70;;;2.42;;
25467;SDS011;13384;24.794;110.498;2022-07-06T20:38:16;4.07;;;2.50;;
25467;SDS011;13384;24.794;110.498;2022-07-06T20:40:47;4.97;;;3.70;;
25467;SDS011;13384;24.794;110.498;2022-07-06T20:43:19;4.43;;;3.78;;
25467;SDS011;13384;24.794;110.498;2022-07-06T20:45:51;4.68;;;2.67;;
25467;SDS011;13384;24.794;110.498;2022-07-06T20:48:22;3.40;;;3.10;;
25467;SDS011;13384;24.794;110.498;2022-07-06T20:50:53;3.67;;;2.70;;
25467;SDS011;13384;24.794;110.498;2022-07-06T20:53:25;3.70;;;1.90;;
25467;SDS011;13384;24.794;110.498;2022-07-06T20:55:58;2.72;;;2.10;;
25467;SDS011;13384;24.794;110.498;2022-07-06T20:58:29;7.10;;;2.25;;
25467;SDS011;13384;24.794;110.498;2022-07-06T21:01:21;4.63;;;2.90;;
25467;SDS011;13384;24.794;110.498;2022-07-06T21:04:12;2.28;;;2.00;;
25467;SDS011;13384;24.794;110.498;2022-07-06T21:06:43;4.13;;;3.17;;
25467;SDS011;13384;24.794;110.498;2022-07-06T21:09:14;3.03;;;2.08;;
25467;SDS011;13384;24.794;110.498;2022-07-06T21:11:46;4.20;;;2.20;;
25467;SDS011;13384;24.794;110.498;2022-07-06T21:14:18;4.60;;;1.83;;
25467;SDS011;13384;24.794;110.498;2022-07-06T21:16:49;3.05;;;2.60;;
25467;SDS011;13384;24.794;110.498;2022-07-06T21:19:22;4.47;;;1.95;;
25467;SDS011;13384;24.794;110.498;2022-07-06T21:21:54;6.35;;;2.10;;
25467;SDS011;13384;24.794;110.498;2022-07-06T21:24:25;3.20;;;2.45;;
25467;SDS011;13384;24.794;110.498;2022-07-06T21:26:57;3.00;;;2.05;;
25467;SDS011;13384;24.794;110.498;2022-07-06T21:29:28;2.17;;;2.08;;
25467;SDS011;13384;24.794;110.498;2022-07-06T21:31:59;3.63;;;2.00;;
25467;SDS011;13384;24.794;110.498;2022-07-06T21:34:31;9.43;;;3.08;;
25467;SDS011;13384;24.794;110.498;2022-07-06T21:37:03;4.35;;;2.10;;
25467;SDS011;13384;24.794;110.498;2022-07-06T21:39:34;5.05;;;2.40;;
25467;SDS011;13384;24.794;110.498;2022-07-06T21:42:05;3.60;;;1.88;;
25467;SDS011;13384;24.794;110.498;2022-07-06T21:44:37;2.08;;;1.67;;
25467;SDS011;13384;24.794;110.498;2022-07-06T21:47:08;3.40;;;1.80;;
25467;SDS011;13384;24.794;110.498;2022-07-06T21:49:40;4.20;;;1.92;;
25467;SDS011;13384;24.794;110.498;2022-07-06T21:52:11;3.72;;;2.05;;
25467;SDS011;13384;24.794;110.498;2022-07-06T21:54:42;3.13;;;1.95;;
25467;SDS011;13384;24.794;110.498;2022-07-06T21:57:14;2.70;;;2.03;;
25467;SDS011;13384;24.794;110.498;2022-07-06T21:59:45;2.45;;;2.05;;